Time;durP1;ratioP1;P1;durP2;ratioP2;P2;SDS_P1;SDS_P2;PMS_P1;PMS_P2;Temp;Humidity;BMP_temperature;BMP_pressure;BME280_temperature;BME280_humidity;BME280_pressure;Samples;Min_cycle;Max_cycle;Signal;HPM_P1;HPM_P2
2024/01/10 00:01:48;;;;;;;10.75;8.82;;;;;;;;;;5049037;28;20162;-66
2024/01/10 00:04:16;;;;;;;13.18;9.57;;;;;;;;;;5051568;28;20025;-67
2024/01/10 00:06:42;;;;;;;14.80;9.57;;;;;;;;;;5050772;28;20024;-67
2024/01/10 00:09:08;;;;;;;13.77;9.63;;;;;;;;;;5051509;28;20056;-67
2024/01/10 00:11:34;;;;;;;14.15;8.90;;;;;;;;;;5048741;28;20118;-67
2024/01/10 00:13:59;;;;;;;13.40;9.23;;;;;;;;;;5048782;28;21449;-67
2024/01/10 00:16:27;;;;;;;14.77;9.50;;;;;;;;;;5041080;28;20029;-64
2024/01/10 00:18:53;;;;;;;14.48;8.57;;;;;;;;;;5050450;28;20033;-67
2024/01/10 00:21:18;;;;;;;12.77;8.70;;;;;;;;;;5050298;28;20029;-67
2024/01/10 00:23:44;;;;;;;12.48;8.25;;;;;;;;;;5031688;28;20041;-66
2024/01/10 00:26:09;;;;;;;14.70;8.93;;;;;;;;;;5049523;28;20037;-67
2024/01/10 00:28:34;;;;;;;13.75;8.65;;;;;;;;;;5048478;28;20029;-66
2024/01/10 00:31:00;;;;;;;13.70;8.93;;;;;;;;;;5049304;28;20051;-66
2024/01/10 00:33:25;;;;;;;12.50;8.35;;;;;;;;;;5049543;28;20041;-65
2024/01/10 00:35:51;;;;;;;13.07;8.77;;;;;;;;;;5050525;28;20112;-67
2024/01/10 00:38:16;;;;;;;13.77;8.43;;;;;;;;;;5050591;28;20063;-67
2024/01/10 00:40:42;;;;;;;16.52;9.07;;;;;;;;;;5051103;28;20040;-67
2024/01/10 00:43:07;;;;;;;13.15;8.90;;;;;;;;;;5049039;28;20457;-67
2024/01/10 00:45:33;;;;;;;14.45;8.88;;;;;;;;;;5049517;28;20032;-67
2024/01/10 00:47:58;;;;;;;14.73;8.18;;;;;;;;;;5041790;28;20030;-68
2024/01/10 00:50:23;;;;;;;14.63;8.50;;;;;;;;;;5031084;28;20198;-65
2024/01/10 00:52:49;;;;;;;13.10;8.60;;;;;;;;;;5043219;28;20462;-66
2024/01/10 00:55:14;;;;;;;11.30;8.18;;;;;;;;;;5051200;28;20039;-67
2024/01/10 00:57:40;;;;;;;13.23;8.23;;;;;;;;;;5030526;28;20044;-66
2024/01/10 01:00:10;;;;;;;12.27;8.05;;;;;;;;;;5048066;28;20079;-66
2024/01/10 01:02:36;;;;;;;13.05;7.95;;;;;;;;;;5038192;28;20033;-66
2024/01/10 01:05:02;;;;;;;13.23;8.25;;;;;;;;;;5054312;28;20103;-66
2024/01/10 01:07:27;;;;;;;12.88;7.90;;;;;;;;;;5054031;28;20033;-66
2024/01/10 01:09:53;;;;;;;11.48;7.60;;;;;;;;;;5054083;28;20396;-67
2024/01/10 01:12:18;;;;;;;13.55;8.32;;;;;;;;;;5054736;28;20025;-67
2024/01/10 01:14:44;;;;;;;13.30;8.20;;;;;;;;;;5053694;28;20632;-66
2024/01/10 01:17:09;;;;;;;11.13;7.40;;;;;;;;;;5053303;28;20028;-67
2024/01/10 01:19:35;;;;;;;13.23;7.95;;;;;;;;;;5053696;28;20052;-66
2024/01/10 01:22:00;;;;;;;14.20;7.82;;;;;;;;;;5054352;28;20040;-65
2024/01/10 01:24:26;;;;;;;12.50;7.18;;;;;;;;;;5053389;28;20433;-64
2024/01/10 01:26:52;;;;;;;16.63;8.05;;;;;;;;;;5054037;28;20025;-66
2024/01/10 01:29:17;;;;;;;12.48;7.57;;;;;;;;;;5053889;28;20036;-67
2024/01/10 01:31:43;;;;;;;11.68;7.00;;;;;;;;;;5052979;28;20040;-67
2024/01/10 01:34:08;;;;;;;14.32;8.27;;;;;;;;;;5051894;28;20053;-67
2024/01/10 01:36:34;;;;;;;11.85;7.65;;;;;;;;;;5031905;28;20124;-67
2024/01/10 01:38:59;;;;;;;12.57;7.55;;;;;;;;;;5053144;28;20043;-64
2024/01/10 01:41:24;;;;;;;11.98;7.70;;;;;;;;;;5052385;28;20044;-65
2024/01/10 01:43:50;;;;;;;11.98;7.53;;;;;;;;;;5052016;28;20036;-67
2024/01/10 01:46:15;;;;;;;11.93;7.43;;;;;;;;;;5052036;28;20043;-66
2024/01/10 01:48:41;;;;;;;12.98;7.60;;;;;;;;;;5032574;28;20091;-67
2024/01/10 01:51:08;;;;;;;12.60;7.53;;;;;;;;;;5044378;28;20077;-67
2024/01/10 01:53:35;;;;;;;12.68;7.65;;;;;;;;;;5051545;28;20077;-67
2024/01/10 01:56:04;;;;;;;13.77;6.75;;;;;;;;;;5052174;28;20036;-67
2024/01/10 01:58:29;;;;;;;12.27;7.00;;;;;;;;;;5051107;28;20067;-63
2024/01/10 02:00:55;;;;;;;10.85;6.90;;;;;;;;;;5053791;28;20065;-67
2024/01/10 02:03:21;;;;;;;13.27;6.88;;;;;;;;;;5052620;28;20440;-66
2024/01/10 02:05:47;;;;;;;12.07;7.05;;;;;;;;;;5034584;28;20044;-67
2024/01/10 02:08:13;;;;;;;11.82;7.53;;;;;;;;;;5034746;28;20037;-67
2024/01/10 02:10:38;;;;;;;12.27;7.00;;;;;;;;;;5052580;28;20121;-66
2024/01/10 02:13:05;;;;;;;12.20;7.60;;;;;;;;;;5052215;28;20477;-66
2024/01/10 02:15:31;;;;;;;12.63;7.20;;;;;;;;;;5034690;28;20040;-64
2024/01/10 02:17:56;;;;;;;11.60;6.75;;;;;;;;;;5053016;28;20330;-68
2024/01/10 02:20:22;;;;;;;12.48;7.40;;;;;;;;;;5053809;28;20025;-66
2024/01/10 02:22:50;;;;;;;12.15;7.32;;;;;;;;;;5051824;28;20083;-66
2024/01/10 02:25:15;;;;;;;14.95;7.53;;;;;;;;;;5053256;28;20111;-67
2024/01/10 02:27:41;;;;;;;12.73;6.75;;;;;;;;;;5019779;28;20120;-67
2024/01/10 02:30:08;;;;;;;10.27;7.05;;;;;;;;;;5042338;28;20500;-67
2024/01/10 02:32:34;;;;;;;11.25;6.70;;;;;;;;;;5052647;28;20040;-68
2024/01/10 02:34:59;;;;;;;12.88;7.05;;;;;;;;;;5052129;28;20381;-66
2024/01/10 02:37:25;;;;;;;15.52;7.20;;;;;;;;;;5052628;28;20203;-67
2024/01/10 02:39:50;;;;;;;16.30;7.22;;;;;;;;;;5051492;28;20101;-67
2024/01/10 02:42:16;;;;;;;13.57;6.63;;;;;;;;;;5052472;28;20071;-67
2024/01/10 02:44:42;;;;;;;11.20;6.25;;;;;;;;;;5051063;28;20047;-67
2024/01/10 02:47:07;;;;;;;10.32;6.22;;;;;;;;;;5052822;28;20048;-66
2024/01/10 02:49:33;;;;;;;12.63;6.57;;;;;;;;;;5051969;28;20025;-65
2024/01/10 02:51:59;;;;;;;12.18;6.22;;;;;;;;;;5051930;28;20044;-68
2024/01/10 02:54:25;;;;;;;11.70;6.50;;;;;;;;;;5053319;28;20094;-67
2024/01/10 02:56:50;;;;;;;14.27;6.63;;;;;;;;;;5051813;28;20033;-67
2024/01/10 02:59:16;;;;;;;12.02;6.22;;;;;;;;;;5052256;28;20035;-67
2024/01/10 03:01:41;;;;;;;11.85;6.05;;;;;;;;;;5052669;28;20075;-66
2024/01/10 03:04:06;;;;;;;13.57;6.63;;;;;;;;;;5051992;28;20100;-67
2024/01/10 03:06:32;;;;;;;17.33;6.80;;;;;;;;;;5014362;28;20116;-64
2024/01/10 03:08:57;;;;;;;13.95;6.78;;;;;;;;;;5045800;28;20465;-67
2024/01/10 03:11:23;;;;;;;16.75;6.53;;;;;;;;;;5051194;28;20052;-66
2024/01/10 03:14:00;;;;;;;13.10;6.38;;;;;;;;;;5031333;28;20108;-65
2024/01/10 03:16:25;;;;;;;12.68;6.05;;;;;;;;;;5042045;28;20040;-67
2024/01/10 03:18:50;;;;;;;12.07;6.18;;;;;;;;;;5051589;28;20670;-67
2024/01/10 03:21:22;;;;;;;11.93;6.50;;;;;;;;;;5052292;28;20029;-67
2024/01/10 03:23:48;;;;;;;15.57;6.53;;;;;;;;;;5050851;28;20033;-66
2024/01/10 03:26:13;;;;;;;13.00;6.63;;;;;;;;;;5051904;28;20029;-67
2024/01/10 03:28:38;;;;;;;12.38;6.88;;;;;;;;;;5050628;28;20116;-65
2024/01/10 03:31:04;;;;;;;11.70;6.25;;;;;;;;;;5050575;28;20044;-67
2024/01/10 03:33:29;;;;;;;12.18;6.00;;;;;;;;;;5050682;28;20311;-67
2024/01/10 03:35:54;;;;;;;11.82;5.97;;;;;;;;;;5049855;28;20029;-67
2024/01/10 03:38:20;;;;;;;14.88;6.20;;;;;;;;;;5033177;28;20421;-68
2024/01/10 03:40:45;;;;;;;13.65;6.55;;;;;;;;;;5048484;28;20091;-65
2024/01/10 03:43:12;;;;;;;12.93;5.82;;;;;;;;;;5049264;28;20045;-67
2024/01/10 03:45:37;;;;;;;11.75;5.90;;;;;;;;;;5046165;28;20039;-64
2024/01/10 03:48:03;;;;;;;10.50;5.85;;;;;;;;;;5051352;28;20037;-67
2024/01/10 03:50:28;;;;;;;12.95;5.80;;;;;;;;;;5049745;28;20060;-66
2024/01/10 03:52:53;;;;;;;13.07;6.55;;;;;;;;;;5046011;28;20623;-66
2024/01/10 03:55:19;;;;;;;13.88;6.50;;;;;;;;;;5043573;28;20029;-67
2024/01/10 03:57:44;;;;;;;11.80;6.03;;;;;;;;;;5031416;28;20047;-66
2024/01/10 04:00:10;;;;;;;14.07;6.95;;;;;;;;;;5050735;28;20480;-67
2024/01/10 04:02:38;;;;;;;13.40;6.72;;;;;;;;;;5048595;28;20040;-63
2024/01/10 04:05:10;;;;;;;13.70;6.88;;;;;;;;;;5045921;28;20027;-67
2024/01/10 04:07:36;;;;;;;12.23;6.65;;;;;;;;;;5045190;28;20044;-63
2024/01/10 04:10:03;;;;;;;12.45;6.90;;;;;;;;;;5018440;28;20388;-67
2024/01/10 04:12:28;;;;;;;14.20;7.15;;;;;;;;;;5050149;28;20040;-67
2024/01/10 04:14:54;;;;;;;13.07;6.38;;;;;;;;;;5047792;28;20098;-68
2024/01/10 04:17:19;;;;;;;12.57;6.40;;;;;;;;;;5049258;28;20434;-67
2024/01/10 04:19:44;;;;;;;11.95;6.40;;;;;;;;;;5048556;28;20200;-67
2024/01/10 04:22:10;;;;;;;14.65;6.93;;;;;;;;;;5049764;28;20033;-67
2024/01/10 04:24:35;;;;;;;13.07;6.80;;;;;;;;;;5046451;28;20036;-63
2024/01/10 04:27:01;;;;;;;12.77;6.72;;;;;;;;;;5048248;28;20040;-67
2024/01/10 04:29:26;;;;;;;12.98;7.05;;;;;;;;;;5049918;28;20035;-67
2024/01/10 04:31:51;;;;;;;16.25;7.05;;;;;;;;;;5049238;28;20041;-67
2024/01/10 04:34:17;;;;;;;13.80;6.85;;;;;;;;;;5049381;28;20381;-68
2024/01/10 04:36:43;;;;;;;10.95;6.28;;;;;;;;;;5050173;28;20393;-65
2024/01/10 04:39:08;;;;;;;19.35;7.45;;;;;;;;;;5053697;28;20036;-64
2024/01/10 04:41:34;;;;;;;13.15;6.57;;;;;;;;;;5010402;28;1234437;-64
2024/01/10 04:43:59;;;;;;;12.20;6.57;;;;;;;;;;5053887;28;20044;-64
2024/01/10 04:46:24;;;;;;;12.57;6.47;;;;;;;;;;5037116;28;20112;-64
2024/01/10 04:48:50;;;;;;;15.35;7.28;;;;;;;;;;5054245;28;20377;-64
2024/01/10 04:51:15;;;;;;;14.77;6.30;;;;;;;;;;5054917;28;20068;-64
2024/01/10 04:53:41;;;;;;;13.07;6.47;;;;;;;;;;5053838;28;20025;-64
2024/01/10 04:56:06;;;;;;;13.88;7.05;;;;;;;;;;5054416;28;20538;-65
2024/01/10 04:58:32;;;;;;;12.00;6.43;;;;;;;;;;5054766;28;20025;-65
2024/01/10 05:00:58;;;;;;;13.63;6.38;;;;;;;;;;5054188;28;20056;-66
2024/01/10 05:03:23;;;;;;;12.10;6.32;;;;;;;;;;5057279;28;20064;-64
2024/01/10 05:05:49;;;;;;;13.80;6.88;;;;;;;;;;5056799;28;20075;-64
2024/01/10 05:08:14;;;;;;;13.93;7.10;;;;;;;;;;5055907;28;20526;-64
2024/01/10 05:10:40;;;;;;;14.35;7.00;;;;;;;;;;5036415;28;20040;-64
2024/01/10 05:13:05;;;;;;;16.92;7.13;;;;;;;;;;5036476;28;20212;-63
2024/01/10 05:15:30;;;;;;;11.93;6.40;;;;;;;;;;5054321;28;20033;-64
2024/01/10 05:17:56;;;;;;;11.80;6.40;;;;;;;;;;5053649;28;20053;-63
2024/01/10 05:20:21;;;;;;;11.55;6.72;;;;;;;;;;5054418;28;20334;-64
2024/01/10 05:22:46;;;;;;;15.68;7.40;;;;;;;;;;5053710;28;20041;-63
2024/01/10 05:25:12;;;;;;;12.35;6.28;;;;;;;;;;5054846;28;20401;-64
2024/01/10 05:27:38;;;;;;;14.82;7.35;;;;;;;;;;5054677;28;20107;-64
2024/01/10 05:30:03;;;;;;;13.40;7.55;;;;;;;;;;5053822;28;20032;-65
2024/01/10 05:32:29;;;;;;;13.23;6.70;;;;;;;;;;5054646;28;20518;-63
2024/01/10 05:34:54;;;;;;;13.82;7.13;;;;;;;;;;5053059;28;20039;-64
2024/01/10 05:37:21;;;;;;;18.33;7.15;;;;;;;;;;5053969;28;20106;-64
2024/01/10 05:39:47;;;;;;;14.23;7.00;;;;;;;;;;5053472;28;20098;-64
2024/01/10 05:42:14;;;;;;;12.70;6.55;;;;;;;;;;5054061;28;20473;-64
2024/01/10 05:44:40;;;;;;;16.95;7.72;;;;;;;;;;5054110;28;20032;-63
2024/01/10 05:47:05;;;;;;;18.85;7.97;;;;;;;;;;5035390;28;20048;-63
2024/01/10 05:49:31;;;;;;;17.50;8.10;;;;;;;;;;5053689;28;20021;-64
2024/01/10 05:51:56;;;;;;;14.63;7.35;;;;;;;;;;5053223;28;20094;-64
2024/01/10 05:54:21;;;;;;;14.82;7.28;;;;;;;;;;5054055;28;20388;-64
2024/01/10 05:56:48;;;;;;;15.30;7.47;;;;;;;;;;5052874;28;20033;-62
2024/01/10 05:59:15;;;;;;;13.15;6.65;;;;;;;;;;5053797;28;20358;-64
2024/01/10 06:01:41;;;;;;;13.60;6.75;;;;;;;;;;5053514;28;20040;-64
2024/01/10 06:04:06;;;;;;;11.57;7.15;;;;;;;;;;5053286;28;20037;-64
2024/01/10 06:06:32;;;;;;;18.95;7.40;;;;;;;;;;5053676;28;20374;-64
2024/01/10 06:08:57;;;;;;;14.35;7.53;;;;;;;;;;5052996;28;20388;-64
2024/01/10 06:11:23;;;;;;;14.93;7.47;;;;;;;;;;5053590;28;20025;-63
2024/01/10 06:13:48;;;;;;;14.60;7.45;;;;;;;;;;5052644;28;20488;-64
2024/01/10 06:16:14;;;;;;;16.42;7.72;;;;;;;;;;5053625;28;20033;-65
2024/01/10 06:18:39;;;;;;;19.08;8.10;;;;;;;;;;5053164;28;20036;-63
2024/01/10 06:21:05;;;;;;;16.50;8.18;;;;;;;;;;5052674;28;20045;-63
2024/01/10 06:23:30;;;;;;;15.02;7.30;;;;;;;;;;5053278;28;20418;-63
2024/01/10 06:25:56;;;;;;;14.95;7.53;;;;;;;;;;5052521;28;20057;-63
2024/01/10 06:28:23;;;;;;;14.30;7.82;;;;;;;;;;5053580;28;20119;-63
2024/01/10 06:30:48;;;;;;;16.38;8.00;;;;;;;;;;5052515;28;20458;-64
2024/01/10 06:33:14;;;;;;;16.08;8.07;;;;;;;;;;5053275;28;20039;-63
2024/01/10 06:35:41;;;;;;;17.35;7.78;;;;;;;;;;5052796;28;20025;-64
2024/01/10 06:38:06;;;;;;;15.60;8.23;;;;;;;;;;5034505;28;20028;-64
2024/01/10 06:40:32;;;;;;;16.92;7.88;;;;;;;;;;5053172;28;20086;-63
2024/01/10 06:42:57;;;;;;;16.30;7.75;;;;;;;;;;5051704;28;20048;-64
2024/01/10 06:45:22;;;;;;;15.95;8.02;;;;;;;;;;5053040;28;20061;-63
2024/01/10 06:47:48;;;;;;;16.60;8.07;;;;;;;;;;5052079;28;20078;-63
2024/01/10 06:50:13;;;;;;;12.65;7.18;;;;;;;;;;5052986;28;20106;-64
2024/01/10 06:52:39;;;;;;;14.77;7.65;;;;;;;;;;5053455;28;20044;-64
2024/01/10 06:55:05;;;;;;;19.08;8.13;;;;;;;;;;5054049;28;20336;-64
2024/01/10 06:57:30;;;;;;;20.35;7.45;;;;;;;;;;5056428;28;20037;-62
2024/01/10 06:59:55;;;;;;;16.33;8.00;;;;;;;;;;5052088;28;20055;-63
2024/01/10 07:02:23;;;;;;;16.63;8.02;;;;;;;;;;5052741;28;20029;-63
2024/01/10 07:04:49;;;;;;;15.95;7.68;;;;;;;;;;5051622;28;20057;-63
2024/01/10 07:07:14;;;;;;;16.80;8.18;;;;;;;;;;5051308;28;20032;-63
2024/01/10 07:09:40;;;;;;;16.45;8.10;;;;;;;;;;5052245;28;20112;-64
2024/01/10 07:12:07;;;;;;;15.80;7.72;;;;;;;;;;5051410;28;20121;-64
2024/01/10 07:14:32;;;;;;;15.27;7.85;;;;;;;;;;5052016;28;20397;-64
2024/01/10 07:16:58;;;;;;;18.40;8.40;;;;;;;;;;5051247;28;20088;-64
2024/01/10 07:19:23;;;;;;;17.67;8.30;;;;;;;;;;5052247;28;20052;-63
2024/01/10 07:21:50;;;;;;;15.65;8.23;;;;;;;;;;5051480;28;20091;-64
2024/01/10 07:24:15;;;;;;;18.20;7.57;;;;;;;;;;5052360;28;20037;-63
2024/01/10 07:26:41;;;;;;;17.00;8.55;;;;;;;;;;5051975;28;20514;-63
2024/01/10 07:29:08;;;;;;;19.35;8.32;;;;;;;;;;5051192;28;20017;-63
2024/01/10 07:31:34;;;;;;;18.13;8.32;;;;;;;;;;5051741;28;20044;-64
2024/01/10 07:34:00;;;;;;;19.13;8.38;;;;;;;;;;5051015;28;20061;-64
2024/01/10 07:36:29;;;;;;;22.58;9.20;;;;;;;;;;5051630;28;20033;-65
2024/01/10 07:38:57;;;;;;;16.58;8.27;;;;;;;;;;5051260;28;20037;-63
2024/01/10 07:41:22;;;;;;;18.60;8.82;;;;;;;;;;5051739;28;20127;-63
2024/01/10 07:43:48;;;;;;;15.27;8.50;;;;;;;;;;5051953;28;20120;-63
2024/01/10 07:46:13;;;;;;;21.02;9.70;;;;;;;;;;5051480;28;20032;-63
2024/01/10 07:48:38;;;;;;;18.50;8.80;;;;;;;;;;5051956;28;20104;-63
2024/01/10 07:51:04;;;;;;;17.75;8.48;;;;;;;;;;5051135;28;20115;-63
2024/01/10 07:53:30;;;;;;;16.75;8.82;;;;;;;;;;5051840;28;20436;-64
2024/01/10 07:55:55;;;;;;;18.77;8.80;;;;;;;;;;5050884;28;20025;-63
2024/01/10 07:58:21;;;;;;;17.70;8.55;;;;;;;;;;5051749;28;20388;-64
2024/01/10 08:00:46;;;;;;;16.17;8.18;;;;;;;;;;5051520;28;20037;-63
2024/01/10 08:03:12;;;;;;;16.40;8.65;;;;;;;;;;5050852;28;20076;-63
2024/01/10 08:05:37;;;;;;;20.63;9.30;;;;;;;;;;5051441;28;20121;-63
2024/01/10 08:08:03;;;;;;;17.73;8.57;;;;;;;;;;5050681;28;20029;-64
2024/01/10 08:10:29;;;;;;;17.67;8.43;;;;;;;;;;5050819;28;20078;-63
2024/01/10 08:12:54;;;;;;;18.45;8.80;;;;;;;;;;5050841;28;20064;-63
2024/01/10 08:15:20;;;;;;;19.13;8.77;;;;;;;;;;5051106;28;20036;-63
2024/01/10 08:17:46;;;;;;;19.15;8.80;;;;;;;;;;5051512;28;20036;-64
2024/01/10 08:20:14;;;;;;;17.92;8.77;;;;;;;;;;5050842;28;20267;-64
2024/01/10 08:22:40;;;;;;;18.90;9.27;;;;;;;;;;5051461;28;20041;-64
2024/01/10 08:25:06;;;;;;;17.90;8.90;;;;;;;;;;5050776;28;20036;-63
2024/01/10 08:27:33;;;;;;;18.55;9.15;;;;;;;;;;5050006;28;20029;-64
2024/01/10 08:29:59;;;;;;;17.85;8.63;;;;;;;;;;5050458;28;20025;-64
2024/01/10 08:32:24;;;;;;;19.90;9.07;;;;;;;;;;5033649;28;20040;-63
2024/01/10 08:34:49;;;;;;;18.58;8.90;;;;;;;;;;5051363;28;20065;-63
2024/01/10 08:37:17;;;;;;;19.13;9.40;;;;;;;;;;5050374;28;20131;-64
2024/01/10 08:39:43;;;;;;;18.08;9.23;;;;;;;;;;5051308;28;20064;-62
2024/01/10 08:42:09;;;;;;;22.92;10.27;;;;;;;;;;5050280;28;20081;-62
2024/01/10 08:44:35;;;;;;;21.83;10.30;;;;;;;;;;5051111;28;20112;-63
2024/01/10 08:47:00;;;;;;;18.65;9.82;;;;;;;;;;5050481;28;20056;-63
2024/01/10 08:49:26;;;;;;;22.00;10.00;;;;;;;;;;5051648;28;20041;-63
2024/01/10 08:51:53;;;;;;;19.63;10.00;;;;;;;;;;5051011;28;20481;-64
2024/01/10 08:54:19;;;;;;;25.77;10.02;;;;;;;;;;5051102;28;20083;-63
2024/01/10 08:56:45;;;;;;;18.45;9.25;;;;;;;;;;5050838;28;20110;-64
2024/01/10 08:59:11;;;;;;;20.75;10.20;;;;;;;;;;5050559;28;20681;-63
2024/01/10 09:01:38;;;;;;;21.42;10.30;;;;;;;;;;5051152;28;20029;-63
2024/01/10 09:04:04;;;;;;;20.35;10.63;;;;;;;;;;5050402;28;20064;-64
2024/01/10 09:06:31;;;;;;;22.30;11.15;;;;;;;;;;5051395;28;20033;-63
2024/01/10 09:08:57;;;;;;;19.70;10.95;;;;;;;;;;5048947;28;20021;-63
2024/01/10 09:11:22;;;;;;;21.13;11.20;;;;;;;;;;5050484;28;20078;-63
2024/01/10 09:13:47;;;;;;;22.20;11.25;;;;;;;;;;5051126;28;20025;-63
2024/01/10 09:16:13;;;;;;;23.95;11.23;;;;;;;;;;5049999;28;20158;-63
2024/01/10 09:18:39;;;;;;;25.27;11.25;;;;;;;;;;5050898;28;20033;-64
2024/01/10 09:21:05;;;;;;;20.50;11.18;;;;;;;;;;5050163;28;20036;-65
2024/01/10 09:23:30;;;;;;;20.70;11.57;;;;;;;;;;5054610;28;20037;-63
2024/01/10 09:25:56;;;;;;;24.80;11.88;;;;;;;;;;5053849;28;20186;-65
2024/01/10 09:28:21;;;;;;;23.83;11.77;;;;;;;;;;5054644;28;20119;-64
2024/01/10 09:30:47;;;;;;;23.63;12.52;;;;;;;;;;5056427;28;20108;-63
2024/01/10 09:33:12;;;;;;;24.27;11.82;;;;;;;;;;5055212;28;20024;-64
2024/01/10 09:35:38;;;;;;;21.48;12.55;;;;;;;;;;5055569;28;20095;-63
2024/01/10 09:38:04;;;;;;;22.08;12.85;;;;;;;;;;5053202;28;20367;-64
2024/01/10 09:40:29;;;;;;;20.65;13.15;;;;;;;;;;5054111;28;20037;-64
2024/01/10 09:42:55;;;;;;;26.08;12.88;;;;;;;;;;5052130;28;20113;-64
2024/01/10 09:45:21;;;;;;;22.17;12.88;;;;;;;;;;5053927;28;20029;-63
2024/01/10 09:47:51;;;;;;;25.58;13.60;;;;;;;;;;5054122;28;20021;-64
2024/01/10 09:50:16;;;;;;;25.75;13.82;;;;;;;;;;5053512;28;20025;-63
2024/01/10 09:52:53;;;;;;;22.45;13.48;;;;;;;;;;5054131;28;20055;-64
2024/01/10 09:55:23;;;;;;;23.98;13.88;;;;;;;;;;5053092;28;20045;-64
2024/01/10 09:57:49;;;;;;;22.50;13.57;;;;;;;;;;5053891;28;20036;-64
2024/01/10 10:00:16;;;;;;;22.23;14.40;;;;;;;;;;5053124;28;20893;-64
2024/01/10 10:02:42;;;;;;;26.77;14.35;;;;;;;;;;5053801;28;20032;-64
2024/01/10 10:05:09;;;;;;;23.85;13.88;;;;;;;;;;5053130;28;20037;-64
2024/01/10 10:07:48;;;;;;;30.02;14.82;;;;;;;;;;5053451;28;20385;-63
2024/01/10 10:10:15;;;;;;;24.00;13.98;;;;;;;;;;5052677;28;20458;-63
2024/01/10 10:12:46;;;;;;;24.95;15.13;;;;;;;;;;5052449;28;20044;-64
2024/01/10 10:15:13;;;;;;;25.23;15.50;;;;;;;;;;5052941;28;20108;-64
2024/01/10 10:17:46;;;;;;;23.27;14.55;;;;;;;;;;5053394;28;20029;-63
2024/01/10 10:20:19;;;;;;;27.45;15.27;;;;;;;;;;5052908;28;20033;-65
2024/01/10 10:23:10;;;;;;;24.48;15.30;;;;;;;;;;5053648;28;20029;-63
2024/01/10 10:25:47;;;;;;;23.45;15.48;;;;;;;;;;5053331;28;20481;-63
2024/01/10 10:28:12;;;;;;;25.17;15.07;;;;;;;;;;5052504;28;20091;-63
2024/01/10 10:30:38;;;;;;;26.17;15.23;;;;;;;;;;5052912;28;20036;-64
2024/01/10 10:33:05;;;;;;;27.10;16.20;;;;;;;;;;5051273;28;20048;-63
2024/01/10 10:35:32;;;;;;;23.83;15.43;;;;;;;;;;5053037;28;20526;-63
2024/01/10 10:37:58;;;;;;;29.73;16.05;;;;;;;;;;5052521;28;20082;-64
2024/01/10 10:40:24;;;;;;;25.75;16.10;;;;;;;;;;5052859;28;20033;-64
2024/01/10 10:42:55;;;;;;;27.75;16.02;;;;;;;;;;5052948;28;20056;-64
2024/01/10 10:45:25;;;;;;;27.42;17.05;;;;;;;;;;5052296;28;20631;-64
2024/01/10 10:47:58;;;;;;;32.35;16.80;;;;;;;;;;5052815;28;20465;-63
2024/01/10 10:50:25;;;;;;;26.00;16.45;;;;;;;;;;5052355;28;20037;-64
2024/01/10 10:52:51;;;;;;;26.90;16.60;;;;;;;;;;5052800;28;20051;-64
2024/01/10 10:55:18;;;;;;;26.52;17.05;;;;;;;;;;5034300;28;20029;-64
2024/01/10 10:57:46;;;;;;;26.05;16.48;;;;;;;;;;5052304;28;20033;-63
2024/01/10 11:00:15;;;;;;;26.20;16.88;;;;;;;;;;5051693;28;20068;-63
2024/01/10 11:02:41;;;;;;;25.60;16.77;;;;;;;;;;5052706;28;20132;-63
2024/01/10 11:05:08;;;;;;;28.83;17.38;;;;;;;;;;5034089;28;20044;-64
2024/01/10 11:07:38;;;;;;;25.50;17.88;;;;;;;;;;5052638;28;20492;-63
2024/01/10 11:10:09;;;;;;;32.92;19.00;;;;;;;;;;5046615;28;20377;-62
2024/01/10 11:13:03;;;;;;;29.67;18.15;;;;;;;;;;5052831;28;20033;-64
2024/01/10 11:15:43;;;;;;;28.50;18.42;;;;;;;;;;5052547;28;20037;-63
2024/01/10 11:18:14;;;;;;;28.52;18.30;;;;;;;;;;5051264;28;20041;-65
2024/01/10 11:20:59;;;;;;;28.17;18.88;;;;;;;;;;5052330;28;20028;-64
2024/01/10 11:23:30;;;;;;;28.45;19.25;;;;;;;;;;5051511;28;20093;-63
2024/01/10 11:25:58;;;;;;;27.25;18.80;;;;;;;;;;5052311;28;20037;-63
2024/01/10 11:28:26;;;;;;;31.50;20.33;;;;;;;;;;5051198;28;20626;-63
2024/01/10 11:30:53;;;;;;;30.38;20.05;;;;;;;;;;5052100;28;20029;-64
2024/01/10 11:33:23;;;;;;;29.58;19.67;;;;;;;;;;5051261;28;20029;-64
2024/01/10 11:36:24;;;;;;;27.30;19.58;;;;;;;;;;5052184;28;20087;-64
2024/01/10 11:38:59;;;;;;;29.08;20.58;;;;;;;;;;5051522;28;20037;-64
2024/01/10 11:41:32;;;;;;;29.92;19.73;;;;;;;;;;5050853;28;20416;-64
2024/01/10 11:44:13;;;;;;;29.65;20.38;;;;;;;;;;5051646;28;20064;-64
2024/01/10 11:46:42;;;;;;;27.45;20.20;;;;;;;;;;5052172;28;20037;-64
2024/01/10 11:49:13;;;;;;;28.55;20.80;;;;;;;;;;5050668;28;20401;-64
2024/01/10 11:51:41;;;;;;;29.25;19.52;;;;;;;;;;5051945;28;20465;-64
2024/01/10 11:54:06;;;;;;;28.73;20.30;;;;;;;;;;5050514;28;20041;-64
2024/01/10 11:56:42;;;;;;;28.88;20.15;;;;;;;;;;5051708;28;20436;-64
2024/01/10 11:59:10;;;;;;;30.05;20.80;;;;;;;;;;5050677;28;20052;-64
2024/01/10 12:01:37;;;;;;;28.92;20.23;;;;;;;;;;5051564;28;20072;-65
2024/01/10 12:04:06;;;;;;;29.25;20.98;;;;;;;;;;5051583;28;20103;-64
2024/01/10 12:06:34;;;;;;;32.80;20.90;;;;;;;;;;5033723;28;20481;-64
2024/01/10 12:09:07;;;;;;;33.80;21.55;;;;;;;;;;5051279;28;20033;-63
2024/01/10 12:11:33;;;;;;;30.30;20.48;;;;;;;;;;5051765;28;20120;-64
2024/01/10 12:13:58;;;;;;;29.55;20.05;;;;;;;;;;5051608;28;20108;-65
2024/01/10 12:16:23;;;;;;;26.30;20.58;;;;;;;;;;5050853;28;20103;-65
2024/01/10 12:18:49;;;;;;;28.15;20.52;;;;;;;;;;5051123;28;20539;-65
2024/01/10 12:21:14;;;;;;;35.10;23.63;;;;;;;;;;5050208;28;20029;-64
2024/01/10 12:23:40;;;;;;;31.80;22.13;;;;;;;;;;5051730;28;20533;-65
2024/01/10 12:26:09;;;;;;;29.75;20.92;;;;;;;;;;5051001;28;20041;-65
2024/01/10 12:28:35;;;;;;;29.08;20.20;;;;;;;;;;5051429;28;20025;-64
2024/01/10 12:31:03;;;;;;;27.52;20.77;;;;;;;;;;5051454;28;20033;-65
2024/01/10 12:33:28;;;;;;;29.38;20.42;;;;;;;;;;5050463;28;20037;-65
2024/01/10 12:36:09;;;;;;;28.77;20.63;;;;;;;;;;5051270;28;20025;-64
2024/01/10 12:38:35;;;;;;;29.15;20.92;;;;;;;;;;5050972;28;20043;-66
2024/01/10 12:41:00;;;;;;;29.65;20.77;;;;;;;;;;5050793;28;20397;-65
2024/01/10 12:43:27;;;;;;;26.95;20.08;;;;;;;;;;5050860;28;20029;-65
2024/01/10 12:46:04;;;;;;;28.80;20.83;;;;;;;;;;5051259;28;20037;-65
2024/01/10 12:48:30;;;;;;;28.95;20.27;;;;;;;;;;5050836;28;20040;-65
2024/01/10 12:51:00;;;;;;;31.58;21.60;;;;;;;;;;5050496;28;20112;-65
2024/01/10 12:53:26;;;;;;;27.67;20.90;;;;;;;;;;5050136;28;20024;-64
2024/01/10 12:55:52;;;;;;;30.30;20.45;;;;;;;;;;5051240;28;20086;-64
2024/01/10 12:58:17;;;;;;;29.33;21.13;;;;;;;;;;5053724;28;20033;-65
2024/01/10 13:00:42;;;;;;;28.02;21.00;;;;;;;;;;5036934;28;20120;-63
2024/01/10 13:03:08;;;;;;;29.85;20.83;;;;;;;;;;5054507;28;20029;-64
2024/01/10 13:05:33;;;;;;;30.35;21.10;;;;;;;;;;5054753;28;20350;-63
2024/01/10 13:07:58;;;;;;;27.90;20.88;;;;;;;;;;5054658;28;20028;-63
2024/01/10 13:10:24;;;;;;;29.05;21.52;;;;;;;;;;5053580;28;20458;-63
2024/01/10 13:12:49;;;;;;;29.10;21.58;;;;;;;;;;5054782;28;20136;-63
2024/01/10 13:15:15;;;;;;;29.45;21.30;;;;;;;;;;5053971;28;20029;-63
2024/01/10 13:17:40;;;;;;;28.17;20.95;;;;;;;;;;5054754;28;20477;-63
2024/01/10 13:20:06;;;;;;;33.83;23.17;;;;;;;;;;5054169;28;20029;-63
2024/01/10 13:22:31;;;;;;;32.42;22.67;;;;;;;;;;5053636;28;20465;-64
2024/01/10 13:24:57;;;;;;;34.20;23.52;;;;;;;;;;5054415;28;20393;-64
2024/01/10 13:27:22;;;;;;;32.90;21.67;;;;;;;;;;5053979;28;20043;-62
2024/01/10 13:29:47;;;;;;;31.75;21.80;;;;;;;;;;5054313;28;20475;-62
2024/01/10 13:32:15;;;;;;;29.85;20.77;;;;;;;;;;5053445;28;20029;-64
2024/01/10 13:34:41;;;;;;;28.52;20.67;;;;;;;;;;5054397;28;20347;-63
2024/01/10 13:37:07;;;;;;;27.50;20.75;;;;;;;;;;5054510;28;20087;-64
2024/01/10 13:39:32;;;;;;;30.90;21.48;;;;;;;;;;5052920;28;20040;-63
2024/01/10 13:41:58;;;;;;;29.65;21.05;;;;;;;;;;5053720;28;20045;-63
2024/01/10 13:44:24;;;;;;;30.55;20.75;;;;;;;;;;5053359;28;20112;-63
2024/01/10 13:46:50;;;;;;;29.08;21.60;;;;;;;;;;5053893;28;20408;-63
2024/01/10 13:49:15;;;;;;;31.85;21.75;;;;;;;;;;5052996;28;20438;-63
2024/01/10 13:51:41;;;;;;;28.88;21.30;;;;;;;;;;5054064;28;20442;-63
2024/01/10 13:54:06;;;;;;;30.55;22.20;;;;;;;;;;5053553;28;20037;-63
2024/01/10 13:56:34;;;;;;;31.33;21.75;;;;;;;;;;5053516;28;20086;-63
2024/01/10 13:58:59;;;;;;;31.90;21.83;;;;;;;;;;5057758;28;20032;-63
2024/01/10 14:01:26;;;;;;;29.77;21.10;;;;;;;;;;5055936;28;20516;-63
2024/01/10 14:03:51;;;;;;;28.35;20.85;;;;;;;;;;5054841;28;20052;-63
2024/01/10 14:06:17;;;;;;;29.63;20.88;;;;;;;;;;5053114;28;20377;-64
2024/01/10 14:08:43;;;;;;;29.08;21.15;;;;;;;;;;5053328;28;20039;-63
2024/01/10 14:11:09;;;;;;;30.23;20.77;;;;;;;;;;5053201;28;20389;-63
2024/01/10 14:13:35;;;;;;;27.58;20.33;;;;;;;;;;5053096;28;20029;-63
2024/01/10 14:16:01;;;;;;;29.70;20.80;;;;;;;;;;5053444;28;20126;-64
2024/01/10 14:18:26;;;;;;;31.02;20.13;;;;;;;;;;5052892;28;20067;-64
2024/01/10 14:20:51;;;;;;;28.58;20.10;;;;;;;;;;5053245;28;20102;-64
2024/01/10 14:23:20;;;;;;;31.02;20.40;;;;;;;;;;5052515;28;20385;-63